Time;durP1;ratioP1;P1;durP2;ratioP2;P2;SDS_P1;SDS_P2;PMS_P1;PMS_P2;Temp;Humidity;BMP_temperature;BMP_pressure;BME280_temperature;BME280_humidity;BME280_pressure;Samples;Min_cycle;Max_cycle;Signal;HPM_P1;HPM_P2
2021/07/22 00:00:35;;;;;;;20.1;17.4;;;;;;;21.8;50.0;102040;;;;
2021/07/22 00:02:35;;;;;;;20.1;18.0;;;;;;;21.9;50.4;102030;;;;
2021/07/22 00:06:35;;;;;;;20.1;18.0;;;;;;;21.8;50.8;102040;;;;
2021/07/22 00:10:35;;;;;;;20.1;18.0;;;;;;;21.7;51.1;102040;;;;
2021/07/22 00:16:35;;;;;;;20.1;18.0;;;;;;;21.6;50.8;102040;;;;
2021/07/22 00:18:35;;;;;;;20.1;18.0;;;;;;;21.5;51.7;102040;;;;
2021/07/22 00:22:35;;;;;;;23.0;18.0;;;;;;;21.6;51.7;102030;;;;
2021/07/22 00:24:36;;;;;;;23.0;18.0;;;;;;;21.5;51.5;102030;;;;
2021/07/22 00:32:35;;;;;;;23.0;18.0;;;;;;;21.4;51.1;102030;;;;
2021/07/22 00:34:35;;;;;;;23.0;18.0;;;;;;;21.5;51.1;102040;;;;
2021/07/22 00:36:35;;;;;;;23.0;18.0;;;;;;;21.4;51.1;102030;;;;
2021/07/22 00:40:35;;;;;;;23.0;18.0;;;;;;;21.5;50.9;102030;;;;
2021/07/22 00:42:35;;;;;;;20.3;17.9;;;;;;;21.4;51.8;102030;;;;
2021/07/22 00:44:35;;;;;;;20.3;17.9;;;;;;;21.3;52.2;102030;;;;
2021/07/22 00:50:35;;;;;;;20.3;17.9;;;;;;;21.2;51.8;102030;;;;
2021/07/22 00:58:35;;;;;;;20.3;17.9;;;;;;;21.1;51.8;102020;;;;
2021/07/22 01:02:35;;;;;;;20.2;18.1;;;;;;;21.2;52.0;102020;;;;
2021/07/22 01:04:35;;;;;;;20.2;18.1;;;;;;;21.1;52.4;102020;;;;
2021/07/22 01:06:35;;;;;;;20.2;18.1;;;;;;;21.0;53.3;102020;;;;
2021/07/22 01:12:35;;;;;;;20.2;18.1;;;;;;;20.9;53.7;102010;;;;
2021/07/22 01:14:35;;;;;;;20.2;18.1;;;;;;;20.8;54.2;102010;;;;
2021/07/22 01:20:35;;;;;;;20.2;18.1;;;;;;;20.9;53.0;102010;;;;
2021/07/22 01:22:35;;;;;;;20.8;18.6;;;;;;;20.8;54.6;102010;;;;
2021/07/22 01:28:35;;;;;;;20.8;18.6;;;;;;;20.6;54.1;102010;;;;
2021/07/22 01:30:35;;;;;;;20.8;18.6;;;;;;;20.7;53.2;102010;;;;
2021/07/22 01:32:35;;;;;;;20.8;18.6;;;;;;;20.6;54.4;102000;;;;
2021/07/22 01:36:35;;;;;;;20.8;18.6;;;;;;;20.7;53.3;102000;;;;
2021/07/22 01:38:35;;;;;;;20.8;18.6;;;;;;;20.6;52.6;102000;;;;
2021/07/22 01:40:35;;;;;;;20.8;18.6;;;;;;;20.7;53.3;102000;;;;
2021/07/22 01:42:35;;;;;;;20.2;17.8;;;;;;;20.6;53.2;102000;;;;
2021/07/22 01:44:35;;;;;;;20.2;17.8;;;;;;;20.5;54.4;102010;;;;
2021/07/22 01:54:35;;;;;;;20.2;17.8;;;;;;;20.4;53.8;102000;;;;
2021/07/22 02:00:35;;;;;;;20.2;17.8;;;;;;;20.5;54.0;102010;;;;
2021/07/22 02:02:35;;;;;;;22.7;19.2;;;;;;;20.4;54.8;102010;;;;
2021/07/22 02:04:35;;;;;;;22.7;19.2;;;;;;;20.1;56.6;102010;;;;
2021/07/22 02:06:35;;;;;;;22.7;19.2;;;;;;;20.2;54.6;102000;;;;
2021/07/22 02:08:35;;;;;;;22.7;19.2;;;;;;;20.3;54.3;102000;;;;
2021/07/22 02:24:35;;;;;;;22.1;19.7;;;;;;;20.2;53.6;102000;;;;
2021/07/22 02:32:35;;;;;;;22.1;19.7;;;;;;;20.1;54.8;102000;;;;
2021/07/22 02:42:35;;;;;;;23.0;20.3;;;;;;;20.0;54.8;102010;;;;
2021/07/22 02:44:39;;;;;;;23.0;20.3;;;;;;;20.1;54.5;102010;;;;
2021/07/22 02:46:35;;;;;;;23.0;20.3;;;;;;;20.0;55.4;102010;;;;
2021/07/22 02:54:35;;;;;;;23.0;20.3;;;;;;;19.9;56.2;102010;;;;
2021/07/22 03:00:35;;;;;;;23.0;20.3;;;;;;;20.1;54.5;102010;;;;
2021/07/22 03:02:35;;;;;;;25.9;22.9;;;;;;;20.0;54.6;102010;;;;
2021/07/22 03:08:35;;;;;;;25.9;22.9;;;;;;;19.9;56.0;102010;;;;
2021/07/22 03:12:35;;;;;;;25.9;22.9;;;;;;;19.8;55.9;102010;;;;
2021/07/22 03:14:35;;;;;;;25.9;22.9;;;;;;;19.9;55.4;102010;;;;
2021/07/22 03:20:35;;;;;;;25.9;22.9;;;;;;;20.0;55.0;102010;;;;
2021/07/22 03:22:35;;;;;;;26.3;22.5;;;;;;;19.9;56.8;102010;;;;
2021/07/22 03:24:35;;;;;;;26.3;22.5;;;;;;;19.8;57.2;102010;;;;
2021/07/22 03:26:35;;;;;;;26.3;22.5;;;;;;;19.7;57.2;102010;;;;
2021/07/22 03:32:35;;;;;;;26.3;22.5;;;;;;;19.8;58.3;102010;;;;
2021/07/22 03:34:35;;;;;;;26.3;22.5;;;;;;;19.7;55.6;102000;;;;
2021/07/22 03:40:35;;;;;;;26.3;22.5;;;;;;;19.8;57.1;102000;;;;
2021/07/22 03:44:35;;;;;;;27.3;23.6;;;;;;;19.6;56.8;102000;;;;
2021/07/22 03:48:35;;;;;;;27.3;23.6;;;;;;;19.4;57.2;102010;;;;
2021/07/22 03:52:35;;;;;;;27.3;23.6;;;;;;;19.5;58.1;102000;;;;
2021/07/22 03:54:35;;;;;;;27.3;23.6;;;;;;;19.4;57.5;102000;;;;
2021/07/22 03:56:35;;;;;;;27.3;23.6;;;;;;;19.5;56.2;102000;;;;
2021/07/22 04:00:35;;;;;;;27.8;23.8;;;;;;;19.6;56.9;102010;;;;
2021/07/22 04:02:35;;;;;;;27.8;23.8;;;;;;;19.5;56.1;102000;;;;
2021/07/22 04:04:35;;;;;;;27.8;23.8;;;;;;;19.3;58.8;102000;;;;
2021/07/22 04:06:35;;;;;;;27.8;23.8;;;;;;;19.2;59.7;102000;;;;
2021/07/22 04:08:35;;;;;;;27.8;23.8;;;;;;;19.4;57.2;102000;;;;
2021/07/22 04:12:35;;;;;;;27.8;23.8;;;;;;;19.3;58.5;102000;;;;
2021/07/22 04:14:35;;;;;;;27.8;23.8;;;;;;;19.4;58.2;102000;;;;
2021/07/22 04:16:36;;;;;;;27.8;23.8;;;;;;;19.3;58.8;102000;;;;
2021/07/22 04:20:35;;;;;;;28.8;23.6;;;;;;;19.4;58.8;102000;;;;
2021/07/22 04:22:35;;;;;;;28.8;23.6;;;;;;;19.3;59.9;102010;;;;
2021/07/22 04:26:35;;;;;;;28.8;23.6;;;;;;;19.2;58.9;102010;;;;
2021/07/22 04:30:35;;;;;;;28.8;23.6;;;;;;;19.1;60.3;102010;;;;
2021/07/22 04:34:35;;;;;;;28.8;23.6;;;;;;;19.2;58.3;102010;;;;
2021/07/22 04:40:35;;;;;;;27.6;22.6;;;;;;;19.4;57.3;102010;;;;
2021/07/22 04:42:35;;;;;;;27.6;22.6;;;;;;;19.3;58.3;102010;;;;
2021/07/22 04:44:35;;;;;;;27.6;22.6;;;;;;;19.2;58.1;102010;;;;
2021/07/22 04:48:35;;;;;;;27.6;22.6;;;;;;;19.1;58.3;102010;;;;
2021/07/22 04:50:35;;;;;;;27.6;22.6;;;;;;;19.2;59.0;102010;;;;
2021/07/22 04:52:35;;;;;;;27.6;22.6;;;;;;;19.0;60.6;102010;;;;
2021/07/22 04:54:35;;;;;;;27.6;22.6;;;;;;;19.1;59.8;102010;;;;
2021/07/22 04:56:35;;;;;;;27.6;22.6;;;;;;;19.0;61.1;102010;;;;
2021/07/22 05:00:35;;;;;;;26.1;21.7;;;;;;;19.2;61.0;102010;;;;
2021/07/22 05:06:35;;;;;;;26.1;21.7;;;;;;;19.3;59.2;102010;;;;
2021/07/22 05:08:35;;;;;;;26.1;21.7;;;;;;;19.2;59.9;102020;;;;
2021/07/22 05:12:35;;;;;;;26.1;21.7;;;;;;;19.3;61.0;102020;;;;
2021/07/22 05:14:35;;;;;;;26.1;21.7;;;;;;;19.2;61.1;102030;;;;
2021/07/22 05:16:35;;;;;;;26.1;21.7;;;;;;;19.3;58.7;102030;;;;
2021/07/22 05:18:35;;;;;;;26.1;21.7;;;;;;;19.2;60.6;102030;;;;
2021/07/22 05:20:35;;;;;;;23.9;20.8;;;;;;;19.3;61.0;102030;;;;
2021/07/22 05:24:35;;;;;;;23.9;20.8;;;;;;;19.2;61.9;102030;;;;
2021/07/22 05:26:35;;;;;;;23.9;20.8;;;;;;;19.3;61.5;102030;;;;
2021/07/22 05:30:35;;;;;;;23.9;20.8;;;;;;;19.2;63.3;102040;;;;
2021/07/22 05:32:35;;;;;;;23.9;20.8;;;;;;;19.3;60.0;102030;;;;
2021/07/22 05:34:35;;;;;;;23.9;20.8;;;;;;;19.4;58.8;102030;;;;
2021/07/22 05:36:35;;;;;;;23.9;20.8;;;;;;;19.5;61.2;102030;;;;
2021/07/22 05:40:35;;;;;;;23.4;20.8;;;;;;;19.6;60.4;102030;;;;
2021/07/22 05:44:35;;;;;;;23.4;20.8;;;;;;;19.5;59.8;102030;;;;
2021/07/22 05:54:35;;;;;;;23.4;20.8;;;;;;;19.6;61.7;102020;;;;
2021/07/22 06:00:35;;;;;;;22.3;19.9;;;;;;;19.8;59.8;102030;;;;
2021/07/22 06:04:35;;;;;;;22.3;19.9;;;;;;;19.7;61.6;102030;;;;
2021/07/22 06:06:36;;;;;;;22.3;19.9;;;;;;;19.8;62.4;102030;;;;
2021/07/22 06:08:35;;;;;;;22.3;19.9;;;;;;;19.9;60.2;102030;;;;
2021/07/22 06:12:35;;;;;;;22.3;19.9;;;;;;;20.0;59.8;102030;;;;
2021/07/22 06:14:35;;;;;;;22.3;19.9;;;;;;;20.1;60.0;102030;;;;
2021/07/22 06:20:35;;;;;;;23.7;19.7;;;;;;;20.3;57.8;102040;;;;
2021/07/22 06:22:35;;;;;;;23.7;19.7;;;;;;;20.2;58.9;102030;;;;
2021/07/22 06:24:35;;;;;;;23.7;19.7;;;;;;;20.3;59.8;102030;;;;
2021/07/22 06:26:35;;;;;;;23.7;19.7;;;;;;;20.4;60.8;102030;;;;
2021/07/22 06:30:35;;;;;;;23.7;19.7;;;;;;;20.5;59.3;102030;;;;
2021/07/22 06:36:35;;;;;;;23.7;19.7;;;;;;;20.6;58.6;102040;;;;
2021/07/22 06:38:35;;;;;;;23.7;19.7;;;;;;;20.7;58.6;102030;;;;
2021/07/22 06:40:35;;;;;;;22.4;20.0;;;;;;;20.8;58.3;102030;;;;
2021/07/22 06:42:35;;;;;;;22.4;20.0;;;;;;;20.6;58.1;102030;;;;
2021/07/22 06:44:35;;;;;;;22.4;20.0;;;;;;;20.7;58.1;102030;;;;
2021/07/22 06:46:35;;;;;;;22.4;20.0;;;;;;;20.8;58.2;102030;;;;
2021/07/22 06:48:35;;;;;;;22.4;20.0;;;;;;;20.9;59.3;102030;;;;
2021/07/22 06:54:35;;;;;;;22.4;20.0;;;;;;;21.0;58.9;102030;;;;
2021/07/22 06:56:35;;;;;;;22.4;20.0;;;;;;;20.9;57.8;102030;;;;
2021/07/22 06:58:35;;;;;;;22.4;20.0;;;;;;;21.0;58.0;102030;;;;
2021/07/22 07:00:35;;;;;;;23.4;18.9;;;;;;;21.1;57.3;102030;;;;
2021/07/22 07:04:35;;;;;;;23.4;18.9;;;;;;;21.0;57.5;102030;;;;
2021/07/22 07:06:35;;;;;;;23.4;18.9;;;;;;;21.1;57.5;102030;;;;
2021/07/22 07:10:35;;;;;;;23.4;18.9;;;;;;;21.2;55.4;102030;;;;
2021/07/22 07:12:35;;;;;;;23.4;18.9;;;;;;;21.3;58.7;102030;;;;
2021/07/22 07:16:35;;;;;;;23.4;18.9;;;;;;;21.4;58.1;102040;;;;
2021/07/22 07:18:35;;;;;;;23.4;18.9;;;;;;;21.5;57.0;102040;;;;
2021/07/22 07:24:35;;;;;;;30.2;27.0;;;;;;;21.6;57.3;102040;;;;
2021/07/22 07:26:35;;;;;;;30.2;27.0;;;;;;;21.5;56.7;102040;;;;
2021/07/22 07:28:35;;;;;;;30.2;27.0;;;;;;;21.7;57.9;102040;;;;
2021/07/22 07:30:35;;;;;;;30.2;27.0;;;;;;;21.8;56.9;102040;;;;
2021/07/22 07:32:35;;;;;;;30.2;27.0;;;;;;;21.7;57.8;102040;;;;
2021/07/22 07:34:35;;;;;;;30.2;27.0;;;;;;;21.8;56.7;102050;;;;
2021/07/22 07:38:35;;;;;;;30.2;27.0;;;;;;;21.9;56.2;102050;;;;
2021/07/22 07:40:35;;;;;;;16.5;14.8;;;;;;;21.8;55.9;102050;;;;
2021/07/22 07:42:35;;;;;;;16.5;14.8;;;;;;;21.9;56.5;102050;;;;
2021/07/22 07:44:35;;;;;;;16.5;14.8;;;;;;;22.0;56.3;102050;;;;
2021/07/22 07:46:35;;;;;;;16.5;14.8;;;;;;;21.9;55.1;102050;;;;
2021/07/22 07:48:35;;;;;;;16.5;14.8;;;;;;;22.0;55.9;102050;;;;
2021/07/22 07:56:35;;;;;;;16.5;14.8;;;;;;;22.2;55.4;102050;;;;
2021/07/22 07:58:35;;;;;;;16.5;14.8;;;;;;;22.1;55.8;102050;;;;
2021/07/22 08:02:35;;;;;;;17.7;15.7;;;;;;;22.2;55.4;102050;;;;
2021/07/22 08:04:35;;;;;;;17.7;15.7;;;;;;;22.4;55.8;102050;;;;
2021/07/22 08:16:35;;;;;;;17.7;15.7;;;;;;;22.7;54.4;102040;;;;
2021/07/22 08:20:35;;;;;;;15.8;14.1;;;;;;;22.9;54.6;102040;;;;
2021/07/22 08:26:35;;;;;;;15.8;14.1;;;;;;;23.0;53.6;102040;;;;
2021/07/22 08:28:35;;;;;;;15.8;14.1;;;;;;;23.1;53.6;102040;;;;
2021/07/22 08:30:35;;;;;;;15.8;14.1;;;;;;;23.3;53.0;102040;;;;
2021/07/22 08:32:35;;;;;;;15.8;14.1;;;;;;;23.5;52.6;102040;;;;
2021/07/22 08:34:35;;;;;;;15.8;14.1;;;;;;;23.7;52.2;102040;;;;
2021/07/22 08:36:35;;;;;;;15.8;14.1;;;;;;;23.5;52.3;102050;;;;
2021/07/22 08:38:35;;;;;;;15.8;14.1;;;;;;;23.6;51.7;102050;;;;
2021/07/22 08:42:35;;;;;;;14.7;11.9;;;;;;;23.8;51.9;102040;;;;
2021/07/22 08:44:35;;;;;;;14.7;11.9;;;;;;;23.6;51.7;102030;;;;
2021/07/22 08:46:35;;;;;;;14.7;11.9;;;;;;;23.7;51.9;102040;;;;
2021/07/22 08:48:35;;;;;;;14.7;11.9;;;;;;;23.6;51.7;102040;;;;
2021/07/22 08:50:35;;;;;;;14.7;11.9;;;;;;;23.5;51.9;102040;;;;
2021/07/22 08:52:35;;;;;;;14.7;11.9;;;;;;;23.4;52.3;102040;;;;
2021/07/22 08:58:35;;;;;;;14.7;11.9;;;;;;;23.5;52.1;102040;;;;
2021/07/22 09:00:35;;;;;;;12.2;10.9;;;;;;;23.4;51.8;102040;;;;
2021/07/22 09:04:35;;;;;;;12.2;10.9;;;;;;;23.5;51.6;102040;;;;
2021/07/22 09:08:35;;;;;;;12.2;10.9;;;;;;;23.8;51.0;102040;;;;
2021/07/22 09:12:35;;;;;;;12.2;10.9;;;;;;;23.9;50.6;102040;;;;
2021/07/22 09:14:35;;;;;;;12.2;10.9;;;;;;;24.1;50.5;102030;;;;
2021/07/22 09:16:35;;;;;;;12.2;10.9;;;;;;;24.3;50.1;102030;;;;
2021/07/22 09:22:35;;;;;;;13.9;10.7;;;;;;;24.4;49.5;102040;;;;
2021/07/22 09:26:35;;;;;;;13.9;10.7;;;;;;;24.3;48.4;102040;;;;
2021/07/22 09:28:35;;;;;;;13.9;10.7;;;;;;;24.4;48.7;102040;;;;
2021/07/22 09:36:35;;;;;;;13.9;10.7;;;;;;;24.5;48.0;102030;;;;
2021/07/22 09:38:35;;;;;;;13.9;10.7;;;;;;;24.6;48.1;102040;;;;
2021/07/22 09:40:35;;;;;;;11.1;9.2;;;;;;;24.7;47.4;102030;;;;
2021/07/22 09:42:35;;;;;;;11.1;9.2;;;;;;;24.6;48.3;102040;;;;
2021/07/22 09:44:35;;;;;;;11.1;9.2;;;;;;;24.7;47.8;102040;;;;
2021/07/22 09:46:35;;;;;;;11.1;9.2;;;;;;;24.9;47.9;102030;;;;
2021/07/22 09:50:35;;;;;;;11.1;9.2;;;;;;;25.0;46.6;102040;;;;
2021/07/22 09:52:35;;;;;;;11.1;9.2;;;;;;;24.8;47.4;102030;;;;
2021/07/22 09:56:36;;;;;;;11.1;9.2;;;;;;;24.9;45.8;102030;;;;
2021/07/22 09:58:35;;;;;;;11.1;9.2;;;;;;;24.8;46.6;102030;;;;
2021/07/22 10:00:35;;;;;;;8.7;7.8;;;;;;;25.0;45.8;102030;;;;
2021/07/22 10:02:36;;;;;;;8.7;7.8;;;;;;;24.8;46.1;102030;;;;
2021/07/22 10:04:35;;;;;;;8.7;7.8;;;;;;;24.9;46.1;102030;;;;
2021/07/22 10:06:35;;;;;;;8.7;7.8;;;;;;;25.1;45.8;102030;;;;
2021/07/22 10:10:35;;;;;;;8.7;7.8;;;;;;;25.3;45.5;102030;;;;
2021/07/22 10:12:35;;;;;;;8.7;7.8;;;;;;;25.4;46.4;102030;;;;
2021/07/22 10:14:35;;;;;;;8.7;7.8;;;;;;;25.2;46.0;102030;;;;
2021/07/22 10:16:35;;;;;;;8.7;7.8;;;;;;;25.3;45.7;102030;;;;
2021/07/22 10:22:38;;;;;;;9.5;8.2;;;;;;;25.1;45.5;102030;;;;
2021/07/22 10:24:35;;;;;;;9.5;8.2;;;;;;;25.2;46.3;102030;;;;
2021/07/22 10:30:35;;;;;;;9.5;8.2;;;;;;;25.1;46.7;102030;;;;
2021/07/22 10:32:35;;;;;;;9.5;8.2;;;;;;;25.2;46.4;102030;;;;
2021/07/22 10:34:35;;;;;;;9.5;8.2;;;;;;;25.1;46.1;102030;;;;
2021/07/22 10:36:35;;;;;;;9.5;8.2;;;;;;;25.2;46.3;102030;;;;
2021/07/22 10:38:35;;;;;;;9.5;8.2;;;;;;;25.3;45.8;102020;;;;
2021/07/22 10:40:35;;;;;;;9.7;8.1;;;;;;;25.5;45.9;102020;;;;
2021/07/22 10:44:35;;;;;;;9.7;8.1;;;;;;;25.2;45.8;102010;;;;
2021/07/22 10:46:35;;;;;;;9.7;8.1;;;;;;;25.4;46.1;102010;;;;
2021/07/22 10:48:35;;;;;;;9.7;8.1;;;;;;;25.5;46.0;102010;;;;
2021/07/22 10:50:35;;;;;;;9.7;8.1;;;;;;;25.4;45.4;102010;;;;
2021/07/22 10:52:35;;;;;;;9.7;8.1;;;;;;;25.3;45.1;102020;;;;
2021/07/22 10:56:35;;;;;;;9.7;8.1;;;;;;;25.4;45.5;102010;;;;
2021/07/22 10:58:35;;;;;;;9.7;8.1;;;;;;;25.3;45.7;102000;;;;
2021/07/22 11:00:35;;;;;;;8.9;8.0;;;;;;;25.4;45.1;102000;;;;
2021/07/22 11:02:35;;;;;;;8.9;8.0;;;;;;;25.5;46.0;102000;;;;
2021/07/22 11:04:35;;;;;;;8.9;8.0;;;;;;;25.7;45.0;102010;;;;
2021/07/22 11:06:35;;;;;;;8.9;8.0;;;;;;;25.5;45.1;102000;;;;
2021/07/22 11:12:35;;;;;;;8.9;8.0;;;;;;;25.7;44.7;102000;;;;
2021/07/22 11:14:35;;;;;;;8.9;8.0;;;;;;;25.8;44.1;102000;;;;
2021/07/22 11:16:35;;;;;;;8.9;8.0;;;;;;;25.5;44.3;102000;;;;
2021/07/22 11:18:35;;;;;;;8.9;8.0;;;;;;;25.7;45.0;102000;;;;
2021/07/22 11:20:35;;;;;;;8.4;7.6;;;;;;;25.8;44.0;102000;;;;
2021/07/22 11:26:45;;;;;;;8.4;7.6;;;;;;;25.6;45.1;102000;;;;
2021/07/22 11:28:35;;;;;;;8.4;7.6;;;;;;;25.8;44.8;102000;;;;
2021/07/22 11:30:35;;;;;;;8.4;7.6;;;;;;;25.7;43.7;102000;;;;
2021/07/22 11:34:36;;;;;;;8.4;7.6;;;;;;;25.6;43.9;101990;;;;
2021/07/22 11:36:35;;;;;;;8.4;7.6;;;;;;;25.9;44.0;101990;;;;
2021/07/22 11:38:35;;;;;;;8.4;7.6;;;;;;;26.0;44.1;101990;;;;
2021/07/22 11:40:35;;;;;;;8.0;7.2;;;;;;;26.1;42.9;101990;;;;
2021/07/22 11:42:35;;;;;;;8.0;7.2;;;;;;;26.2;43.9;101990;;;;
2021/07/22 11:44:35;;;;;;;8.0;7.2;;;;;;;26.3;42.7;101990;;;;
2021/07/22 11:50:35;;;;;;;8.0;7.2;;;;;;;26.4;42.2;101990;;;;
2021/07/22 11:52:35;;;;;;;8.0;7.2;;;;;;;26.3;42.2;101990;;;;
2021/07/22 11:54:35;;;;;;;8.0;7.2;;;;;;;26.5;42.1;101990;;;;
2021/07/22 11:56:35;;;;;;;8.0;7.2;;;;;;;26.6;41.8;101990;;;;
2021/07/22 11:58:35;;;;;;;8.0;7.2;;;;;;;26.5;42.0;101990;;;;
2021/07/22 12:00:35;;;;;;;7.6;7.0;;;;;;;26.6;42.3;101990;;;;
2021/07/22 12:02:36;;;;;;;7.6;7.0;;;;;;;26.5;42.3;101990;;;;
2021/07/22 12:04:35;;;;;;;7.6;7.0;;;;;;;26.7;42.5;101980;;;;
2021/07/22 12:06:35;;;;;;;7.6;7.0;;;;;;;27.0;42.3;101980;;;;
2021/07/22 12:08:35;;;;;;;7.6;7.0;;;;;;;26.8;40.4;101980;;;;
2021/07/22 12:10:35;;;;;;;7.6;7.0;;;;;;;26.9;42.5;101970;;;;
2021/07/22 12:12:35;;;;;;;7.6;7.0;;;;;;;26.8;40.9;101970;;;;
2021/07/22 12:16:35;;;;;;;7.6;7.0;;;;;;;26.9;42.1;101980;;;;
2021/07/22 12:18:35;;;;;;;7.6;7.0;;;;;;;26.6;41.6;101970;;;;
2021/07/22 12:20:35;;;;;;;8.3;7.5;;;;;;;26.7;40.8;101970;;;;
2021/07/22 12:24:35;;;;;;;8.3;7.5;;;;;;;26.8;41.2;101970;;;;
2021/07/22 12:26:35;;;;;;;8.3;7.5;;;;;;;26.7;41.4;101970;;;;
2021/07/22 12:28:36;;;;;;;8.3;7.5;;;;;;;26.6;40.8;101960;;;;
2021/07/22 12:32:35;;;;;;;8.3;7.5;;;;;;;26.7;40.7;101960;;;;
2021/07/22 12:36:36;;;;;;;8.3;7.5;;;;;;;26.8;40.4;101960;;;;
2021/07/22 12:40:35;;;;;;;8.6;7.8;;;;;;;26.7;39.6;101950;;;;
2021/07/22 12:44:42;;;;;;;8.6;7.8;;;;;;;27.1;40.7;101950;;;;
2021/07/22 12:46:35;;;;;;;8.6;7.8;;;;;;;27.0;41.3;101950;;;;
2021/07/22 12:48:35;;;;;;;8.6;7.8;;;;;;;27.2;40.1;101950;;;;
2021/07/22 12:52:35;;;;;;;8.6;7.8;;;;;;;27.4;40.0;101950;;;;
2021/07/22 12:56:35;;;;;;;8.6;7.8;;;;;;;27.3;40.1;101940;;;;
2021/07/22 12:58:37;;;;;;;8.6;7.8;;;;;;;27.4;39.1;101950;;;;
2021/07/22 13:02:36;;;;;;;7.2;6.5;;;;;;;27.5;40.5;101940;;;;
2021/07/22 13:08:35;;;;;;;7.2;6.5;;;;;;;27.6;38.7;101940;;;;
2021/07/22 13:10:35;;;;;;;7.2;6.5;;;;;;;27.4;39.8;101940;;;;
2021/07/22 13:14:35;;;;;;;7.2;6.5;;;;;;;27.3;39.3;101940;;;;
2021/07/22 13:18:39;;;;;;;7.2;6.5;;;;;;;27.2;40.2;101930;;;;
2021/07/22 13:20:35;;;;;;;7.7;6.7;;;;;;;27.3;40.3;101920;;;;
2021/07/22 13:22:35;;;;;;;7.7;6.7;;;;;;;27.4;40.1;101930;;;;
2021/07/22 13:24:35;;;;;;;7.7;6.7;;;;;;;27.5;39.0;101930;;;;
2021/07/22 13:26:35;;;;;;;7.7;6.7;;;;;;;27.4;40.0;101930;;;;
2021/07/22 13:28:37;;;;;;;7.7;6.7;;;;;;;27.5;39.7;101920;;;;
2021/07/22 13:32:35;;;;;;;7.7;6.7;;;;;;;27.8;40.5;101920;;;;
2021/07/22 13:34:37;;;;;;;7.7;6.7;;;;;;;27.9;40.3;101920;;;;
2021/07/22 13:36:37;;;;;;;7.7;6.7;;;;;;;27.8;39.2;101910;;;;
2021/07/22 13:38:42;;;;;;;7.7;6.7;;;;;;;28.0;40.8;101910;;;;
2021/07/22 13:40:36;;;;;;;7.3;6.3;;;;;;;28.2;39.4;101910;;;;
2021/07/22 13:44:35;;;;;;;7.3;6.3;;;;;;;28.1;39.2;101910;;;;
2021/07/22 13:46:35;;;;;;;7.3;6.3;;;;;;;28.2;38.7;101900;;;;
2021/07/22 13:50:35;;;;;;;7.3;6.3;;;;;;;28.4;39.0;101900;;;;
2021/07/22 13:52:35;;;;;;;7.3;6.3;;;;;;;28.3;37.5;101900;;;;
2021/07/22 13:54:35;;;;;;;7.3;6.3;;;;;;;28.5;39.3;101900;;;;
2021/07/22 13:56:35;;;;;;;7.3;6.3;;;;;;;28.4;39.8;101900;;;;
2021/07/22 13:58:35;;;;;;;7.3;6.3;;;;;;;28.6;40.9;101900;;;;
2021/07/22 14:00:35;;;;;;;6.5;5.9;;;;;;;29.0;40.6;101900;;;;
2021/07/22 14:02:35;;;;;;;6.5;5.9;;;;;;;28.6;37.9;101900;;;;
2021/07/22 14:08:35;;;;;;;6.5;5.9;;;;;;;28.7;39.0;101900;;;;
2021/07/22 14:10:35;;;;;;;6.5;5.9;;;;;;;28.8;40.4;101900;;;;
2021/07/22 14:12:35;;;;;;;6.5;5.9;;;;;;;28.7;40.0;101900;;;;
2021/07/22 14:14:35;;;;;;;6.5;5.9;;;;;;;28.6;40.0;101890;;;;
2021/07/22 14:18:35;;;;;;;6.5;5.9;;;;;;;28.7;38.5;101880;;;;
2021/07/22 14:20:35;;;;;;;7.6;6.8;;;;;;;28.6;38.3;101880;;;;
2021/07/22 14:22:35;;;;;;;7.6;6.8;;;;;;;28.9;37.7;101880;;;;
2021/07/22 14:24:35;;;;;;;7.6;6.8;;;;;;;29.2;38.5;101880;;;;
2021/07/22 14:26:35;;;;;;;7.6;6.8;;;;;;;29.0;39.0;101880;;;;
2021/07/22 14:28:35;;;;;;;7.6;6.8;;;;;;;29.1;37.1;101880;;;;
2021/07/22 14:30:39;;;;;;;7.6;6.8;;;;;;;29.2;39.2;101880;;;;
2021/07/22 14:32:35;;;;;;;7.6;6.8;;;;;;;29.5;39.2;101870;;;;
2021/07/22 14:34:35;;;;;;;7.6;6.8;;;;;;;29.4;35.9;101870;;;;
2021/07/22 14:36:35;;;;;;;7.6;6.8;;;;;;;29.3;37.1;101870;;;;
2021/07/22 14:38:35;;;;;;;7.6;6.8;;;;;;;29.8;37.4;101860;;;;
2021/07/22 14:40:35;;;;;;;6.1;5.4;;;;;;;29.9;35.5;101860;;;;
2021/07/22 14:42:35;;;;;;;6.1;5.4;;;;;;;30.3;38.7;101860;;;;
2021/07/22 14:44:35;;;;;;;6.1;5.4;;;;;;;30.5;35.7;101860;;;;
2021/07/22 14:46:35;;;;;;;6.1;5.4;;;;;;;30.1;35.1;101860;;;;
2021/07/22 14:48:35;;;;;;;6.1;5.4;;;;;;;30.4;36.4;101860;;;;
2021/07/22 14:50:35;;;;;;;6.1;5.4;;;;;;;30.6;35.0;101860;;;;
2021/07/22 14:52:35;;;;;;;6.1;5.4;;;;;;;30.7;37.1;101860;;;;
2021/07/22 14:54:35;;;;;;;6.1;5.4;;;;;;;31.0;33.1;101860;;;;
2021/07/22 14:56:35;;;;;;;6.1;5.4;;;;;;;31.1;35.3;101860;;;;
2021/07/22 14:58:36;;;;;;;6.1;5.4;;;;;;;31.0;36.1;101850;;;;
2021/07/22 15:00:35;;;;;;;7.3;5.6;;;;;;;31.4;35.5;101850;;;;
2021/07/22 15:02:35;;;;;;;7.3;5.6;;;;;;;30.6;33.1;101860;;;;
2021/07/22 15:04:35;;;;;;;7.3;5.6;;;;;;;30.7;32.9;101850;;;;
2021/07/22 15:06:35;;;;;;;7.3;5.6;;;;;;;30.4;35.3;101850;;;;
2021/07/22 15:14:35;;;;;;;7.3;5.6;;;;;;;30.6;34.3;101850;;;;
2021/07/22 15:18:36;;;;;;;7.3;5.6;;;;;;;31.0;32.9;101850;;;;
2021/07/22 15:20:35;;;;;;;6.1;5.4;;;;;;;31.6;33.8;101850;;;;
2021/07/22 15:22:35;;;;;;;6.1;5.4;;;;;;;31.7;30.8;101840;;;;
2021/07/22 15:26:35;;;;;;;6.1;5.4;;;;;;;31.6;32.7;101840;;;;
2021/07/22 15:28:35;;;;;;;6.1;5.4;;;;;;;31.9;35.3;101840;;;;
2021/07/22 15:30:35;;;;;;;6.1;5.4;;;;;;;32.0;32.4;101840;;;;
2021/07/22 15:32:35;;;;;;;6.1;5.4;;;;;;;31.6;33.8;101830;;;;
2021/07/22 15:34:35;;;;;;;6.1;5.4;;;;;;;31.9;30.6;101830;;;;
2021/07/22 15:36:35;;;;;;;6.1;5.4;;;;;;;31.7;31.8;101830;;;;
2021/07/22 15:38:35;;;;;;;6.1;5.4;;;;;;;31.9;33.6;101830;;;;
2021/07/22 15:40:35;;;;;;;6.1;5.5;;;;;;;31.4;31.6;101830;;;;
2021/07/22 15:42:35;;;;;;;6.1;5.5;;;;;;;31.7;31.9;101830;;;;
2021/07/22 15:44:35;;;;;;;6.1;5.5;;;;;;;31.8;31.1;101830;;;;
2021/07/22 15:48:35;;;;;;;6.1;5.5;;;;;;;32.2;29.2;101830;;;;
2021/07/22 15:50:35;;;;;;;6.1;5.5;;;;;;;32.5;31.0;101820;;;;
2021/07/22 15:52:35;;;;;;;6.1;5.5;;;;;;;32.3;32.1;101830;;;;
2021/07/22 15:54:35;;;;;;;6.1;5.5;;;;;;;32.0;31.2;101820;;;;
2021/07/22 15:56:35;;;;;;;6.1;5.5;;;;;;;32.3;32.8;101820;;;;
2021/07/22 15:58:35;;;;;;;6.1;5.5;;;;;;;32.2;31.7;101820;;;;
2021/07/22 16:00:35;;;;;;;6.3;5.7;;;;;;;32.1;30.3;101820;;;;
2021/07/22 16:02:36;;;;;;;6.3;5.7;;;;;;;32.5;28.5;101810;;;;
2021/07/22 16:04:35;;;;;;;6.3;5.7;;;;;;;32.4;32.2;101820;;;;
2021/07/22 16:06:35;;;;;;;6.3;5.7;;;;;;;32.6;30.4;101820;;;;
2021/07/22 16:08:39;;;;;;;6.3;5.7;;;;;;;32.7;32.3;101820;;;;
2021/07/22 16:10:35;;;;;;;6.3;5.7;;;;;;;33.1;30.2;101820;;;;
2021/07/22 16:16:35;;;;;;;6.3;5.7;;;;;;;33.4;30.4;101810;;;;
2021/07/22 16:18:35;;;;;;;6.3;5.7;;;;;;;32.9;29.7;101820;;;;
2021/07/22 16:20:35;;;;;;;5.9;5.0;;;;;;;33.4;30.1;101810;;;;
2021/07/22 16:22:35;;;;;;;5.9;5.0;;;;;;;33.5;29.2;101810;;;;
2021/07/22 16:24:35;;;;;;;5.9;5.0;;;;;;;33.3;27.0;101800;;;;
2021/07/22 16:26:35;;;;;;;5.9;5.0;;;;;;;33.6;30.8;101800;;;;
2021/07/22 16:28:35;;;;;;;5.9;5.0;;;;;;;33.3;29.8;101800;;;;
2021/07/22 16:30:35;;;;;;;5.9;5.0;;;;;;;33.0;29.0;101800;;;;
2021/07/22 16:32:35;;;;;;;5.9;5.0;;;;;;;33.1;31.1;101800;;;;
2021/07/22 16:34:36;;;;;;;5.9;5.0;;;;;;;33.0;31.0;101800;;;;
2021/07/22 16:36:35;;;;;;;5.9;5.0;;;;;;;33.4;29.8;101800;;;;
2021/07/22 16:38:38;;;;;;;5.9;5.0;;;;;;;33.3;30.7;101790;;;;
2021/07/22 16:40:35;;;;;;;5.9;5.0;;;;;;;32.9;28.2;101790;;;;
2021/07/22 16:42:35;;;;;;;5.9;5.0;;;;;;;33.0;27.3;101790;;;;
2021/07/22 16:44:35;;;;;;;5.9;5.0;;;;;;;33.3;28.1;101790;;;;
2021/07/22 16:46:36;;;;;;;5.9;5.0;;;;;;;32.8;27.8;101780;;;;
2021/07/22 16:48:35;;;;;;;5.9;5.0;;;;;;;32.7;29.6;101790;;;;
2021/07/22 16:50:35;;;;;;;5.9;5.0;;;;;;;32.8;28.2;101790;;;;
2021/07/22 16:52:35;;;;;;;5.9;5.0;;;;;;;32.9;29.4;101790;;;;
2021/07/22 16:54:37;;;;;;;5.9;5.0;;;;;;;32.6;29.9;101790;;;;
2021/07/22 16:56:35;;;;;;;5.9;5.0;;;;;;;33.0;31.1;101780;;;;
2021/07/22 16:58:35;;;;;;;5.9;5.0;;;;;;;33.1;29.4;101780;;;;
2021/07/22 17:00:35;;;;;;;5.9;5.3;;;;;;;32.2;27.4;101780;;;;
2021/07/22 17:02:36;;;;;;;5.9;5.3;;;;;;;32.0;28.8;101780;;;;
2021/07/22 17:04:35;;;;;;;5.9;5.3;;;;;;;32.1;29.5;101770;;;;
2021/07/22 17:06:37;;;;;;;5.9;5.3;;;;;;;32.8;29.3;101770;;;;
2021/07/22 17:08:35;;;;;;;5.9;5.3;;;;;;;32.4;30.3;101770;;;;
2021/07/22 17:10:35;;;;;;;5.9;5.3;;;;;;;32.6;29.7;101770;;;;
2021/07/22 17:12:35;;;;;;;5.9;5.3;;;;;;;32.8;29.7;101770;;;;
2021/07/22 17:14:35;;;;;;;5.9;5.3;;;;;;;32.0;29.3;101770;;;;
2021/07/22 17:16:35;;;;;;;5.9;5.3;;;;;;;32.1;31.7;101770;;;;
2021/07/22 17:18:35;;;;;;;5.9;5.3;;;;;;;32.2;29.3;101770;;;;
2021/07/22 17:20:35;;;;;;;6.0;5.0;;;;;;;31.8;28.9;101770;;;;
2021/07/22 17:26:35;;;;;;;6.0;5.0;;;;;;;32.0;30.6;101770;;;;
2021/07/22 17:28:35;;;;;;;6.0;5.0;;;;;;;32.1;31.6;101770;;;;
2021/07/22 17:30:35;;;;;;;6.0;5.0;;;;;;;32.0;29.7;101770;;;;
2021/07/22 17:32:35;;;;;;;6.0;5.0;;;;;;;31.6;31.4;101770;;;;
2021/07/22 17:34:35;;;;;;;6.0;5.0;;;;;;;31.9;30.2;101760;;;;
2021/07/22 17:36:35;;;;;;;6.0;5.0;;;;;;;31.7;30.6;101770;;;;
2021/07/22 17:38:35;;;;;;;6.0;5.0;;;;;;;31.8;29.9;101770;;;;
2021/07/22 17:40:35;;;;;;;5.3;4.7;;;;;;;31.6;29.7;101770;;;;
2021/07/22 17:42:35;;;;;;;5.3;4.7;;;;;;;31.0;30.0;101760;;;;
2021/07/22 17:48:35;;;;;;;5.3;4.7;;;;;;;30.7;31.3;101770;;;;
2021/07/22 17:50:36;;;;;;;5.3;4.7;;;;;;;30.1;31.2;101770;;;;
2021/07/22 17:52:35;;;;;;;5.3;4.7;;;;;;;29.8;31.3;101770;;;;
2021/07/22 17:54:35;;;;;;;5.3;4.7;;;;;;;29.6;32.5;101770;;;;
2021/07/22 17:56:35;;;;;;;5.3;4.7;;;;;;;29.4;32.9;101770;;;;
2021/07/22 17:58:35;;;;;;;5.3;4.7;;;;;;;29.2;32.7;101780;;;;
2021/07/22 18:00:36;;;;;;;5.0;4.2;;;;;;;29.1;33.2;101770;;;;
2021/07/22 18:02:39;;;;;;;5.0;4.2;;;;;;;28.8;33.9;101770;;;;
2021/07/22 18:04:35;;;;;;;5.0;4.2;;;;;;;28.3;35.3;101780;;;;
2021/07/22 18:06:35;;;;;;;5.0;4.2;;;;;;;28.4;35.4;101780;;;;
2021/07/22 18:08:35;;;;;;;5.0;4.2;;;;;;;27.9;34.2;101780;;;;
2021/07/22 18:10:35;;;;;;;5.0;4.2;;;;;;;27.8;36.1;101780;;;;
2021/07/22 18:12:36;;;;;;;5.0;4.2;;;;;;;27.9;35.9;101780;;;;
2021/07/22 18:14:35;;;;;;;5.0;4.2;;;;;;;27.4;34.9;101780;;;;
2021/07/22 18:16:37;;;;;;;5.0;4.2;;;;;;;27.5;36.1;101780;;;;
2021/07/22 18:20:35;;;;;;;6.6;3.8;;;;;;;27.1;37.2;101780;;;;
2021/07/22 18:24:35;;;;;;;6.6;3.8;;;;;;;26.5;37.7;101780;;;;
2021/07/22 18:26:35;;;;;;;6.6;3.8;;;;;;;26.6;38.1;101780;;;;